Terminal Aerodrome Forecast
Issued by NWS

Current Version | Previous Version | Text Only | Print | Product List | Glossary On
Versions: 1 2 3 4 5 6 7 8 9 10 11 12 13 14 15
000
FTUS41 KPHI 200500
TAFPNE
TAF
KPNE 200520Z 2006/2106 04004KT P6SM OVC250
     FM201200 07012G18KT P6SM BKN250
     FM202100 09008KT P6SM SKC
     FM210100 08004KT P6SM SKC=

USA.gov is the U.S. government's official web portal to all federal, state and local government web resources and services.